createdAt,value
2023-04-02T00:00:34.259Z,72.74
2023-04-02T00:03:05.144Z,72.93
2023-04-02T00:05:51.452Z,72.59
2023-04-02T00:08:26.600Z,73.16
2023-04-02T00:10:54.696Z,73.48
2023-04-02T00:13:29.239Z,73.19
2023-04-02T00:15:58.243Z,73.03
2023-04-02T00:18:26.318Z,73.11
2023-04-02T00:21:00.555Z,73.18
2023-04-02T00:23:28.265Z,73.07
2023-04-02T00:25:54.953Z,72.92
2023-04-02T00:28:24.090Z,72.87
2023-04-02T00:30:54.027Z,72.96
2023-04-02T00:33:23.377Z,72.83
2023-04-02T00:35:52.570Z,72.81
2023-04-02T00:38:31.968Z,73.12
2023-04-02T00:41:03.002Z,73.19
2023-04-02T00:43:35.875Z,73.06
2023-04-02T00:46:10.971Z,72.91
2023-04-02T00:48:49.074Z,73.40
2023-04-02T00:51:21.692Z,73.46
2023-04-02T00:53:50.400Z,73.73
2023-04-02T00:56:27.734Z,73.74
2023-04-02T00:58:56.584Z,74.00
2023-04-02T01:01:27.858Z,73.90
2023-04-02T01:04:02.352Z,74.25
2023-04-02T01:06:34.204Z,74.18
2023-04-02T01:09:12.821Z,73.92
2023-04-02T01:12:08.498Z,73.97
2023-04-02T01:14:44.096Z,74.75
2023-04-02T01:17:26.457Z,74.20
2023-04-02T01:19:53.136Z,74.24
2023-04-02T01:22:25.078Z,74.31
2023-04-02T01:24:58.215Z,74.22
2023-04-02T01:27:37.094Z,74.51
2023-04-02T01:30:07.452Z,74.51
2023-04-02T01:32:35.846Z,74.27
2023-04-02T01:35:04.634Z,74.07
2023-04-02T01:37:44.998Z,74.50
2023-04-02T01:40:33.130Z,74.64
2023-04-02T01:43:30.098Z,74.58
2023-04-02T01:46:05.670Z,74.03
2023-04-02T01:48:32.453Z,73.90
2023-04-02T01:51:03.652Z,74.46
2023-04-02T01:53:31.326Z,74.28
2023-04-02T01:56:01.185Z,73.88
2023-04-02T01:58:31.771Z,74.28
2023-04-02T02:01:02.775Z,74.26
2023-04-02T02:03:30.084Z,73.97
2023-04-02T02:05:57.786Z,73.94
2023-04-02T02:08:38.681Z,73.76
2023-04-02T02:11:06.831Z,73.89
2023-04-02T02:13:33.660Z,73.97
2023-04-02T02:16:01.874Z,74.14
2023-04-02T02:18:29.552Z,73.92
2023-04-02T02:20:59.791Z,73.95
2023-04-02T02:23:29.836Z,73.09
2023-04-02T02:25:56.728Z,73.55
2023-04-02T02:28:33.420Z,73.29
2023-04-02T02:31:06.993Z,73.20
2023-04-02T02:33:46.086Z,73.54
2023-04-02T02:36:23.125Z,73.21
2023-04-02T02:39:10.767Z,73.22
2023-04-02T02:41:42.685Z,73.41
2023-04-02T02:44:09.190Z,73.19
2023-04-02T02:46:39.745Z,73.06
2023-04-02T02:49:07.354Z,72.86
2023-04-02T02:52:01.125Z,73.26
2023-04-02T02:54:36.580Z,72.85
2023-04-02T02:57:09.402Z,72.77
2023-04-02T02:59:37.428Z,72.51
2023-04-02T03:02:07.263Z,72.57
2023-04-02T03:04:35.816Z,72.35
2023-04-02T03:07:05.978Z,72.63
2023-04-02T03:09:46.012Z,72.43
2023-04-02T03:12:35.076Z,72.19
2023-04-02T03:15:19.070Z,72.05
2023-04-02T03:17:55.051Z,72.14
2023-04-02T03:20:24.367Z,71.84
2023-04-02T03:23:03.975Z,72.19
2023-04-02T03:25:52.048Z,71.74
2023-04-02T03:28:27.568Z,71.92
2023-04-02T03:31:06.131Z,71.82
2023-04-02T03:33:47.956Z,71.69
2023-04-02T03:36:25.816Z,71.71
2023-04-02T03:39:14.070Z,72.20
2023-04-02T03:41:47.969Z,72.41
2023-04-02T03:44:43.743Z,72.44
2023-04-02T03:47:16.369Z,72.07
2023-04-02T03:50:18.150Z,72.58
2023-04-02T03:52:45.117Z,72.58
2023-04-02T03:55:16.037Z,72.90
2023-04-02T03:58:01.640Z,73.17
2023-04-02T04:00:41.451Z,73.30
2023-04-02T04:03:25.317Z,73.03
2023-04-02T04:05:57.676Z,73.41
2023-04-02T04:08:32.847Z,73.38
2023-04-02T04:11:08.012Z,73.29
2023-04-02T04:13:43.444Z,73.66
2023-04-02T04:16:17.023Z,73.43
2023-04-02T04:18:52.713Z,73.94
2023-04-02T04:21:37.157Z,73.78
2023-04-02T04:24:06.598Z,74.10
2023-04-02T04:26:54.257Z,74.06
2023-04-02T04:29:45.661Z,74.27
2023-04-02T04:32:27.621Z,74.42
2023-04-02T04:35:01.133Z,74.47
2023-04-02T04:37:33.783Z,74.22
2023-04-02T04:40:17.542Z,74.45
2023-04-02T04:42:45.771Z,74.56
2023-04-02T04:45:27.579Z,75.12
2023-04-02T04:48:09.799Z,75.03
2023-04-02T04:51:00.577Z,75.22
2023-04-02T04:53:29.472Z,75.29
2023-04-02T04:56:16.463Z,75.38
2023-04-02T04:59:00.324Z,75.45
2023-04-02T05:01:46.536Z,75.88
2023-04-02T05:04:28.747Z,75.81
2023-04-02T05:07:10.699Z,75.65
2023-04-02T05:09:42.242Z,75.81
2023-04-02T05:12:42.897Z,75.53
2023-04-02T05:15:09.604Z,75.74
2023-04-02T05:17:51.322Z,76.07
2023-04-02T05:20:27.312Z,75.74
2023-04-02T05:23:13.816Z,76.11
2023-04-02T05:25:58.062Z,75.86
2023-04-02T05:28:51.021Z,75.87
2023-04-02T05:31:54.787Z,75.72
2023-04-02T05:34:26.601Z,75.42
2023-04-02T05:36:55.748Z,75.39
2023-04-02T05:39:24.680Z,74.95
2023-04-02T05:42:03.425Z,74.86
2023-04-02T05:44:45.570Z,75.26
2023-04-02T05:47:22.496Z,74.94
2023-04-02T05:50:10.489Z,74.96
2023-04-02T05:52:46.159Z,74.93
2023-04-02T05:55:12.697Z,74.92
2023-04-02T05:57:52.877Z,75.13
2023-04-02T06:00:49.324Z,74.51
2023-04-02T06:03:27.269Z,74.71
2023-04-02T06:06:01.180Z,74.59
2023-04-02T06:08:36.497Z,74.59
2023-04-02T06:11:17.466Z,74.34
2023-04-02T06:13:44.199Z,73.98
2023-04-02T06:16:15.578Z,73.70
2023-04-02T06:18:44.311Z,73.51
2023-04-02T06:21:15.556Z,73.97
2023-04-02T06:23:51.017Z,73.73
2023-04-02T06:26:36.243Z,72.77
2023-04-02T06:29:18.449Z,72.80
2023-04-02T06:31:50.697Z,73.23
2023-04-02T06:34:22.590Z,72.56
2023-04-02T06:36:51.459Z,71.97
2023-04-02T06:39:22.204Z,71.53
2023-04-02T06:42:14.097Z,71.16
2023-04-02T06:44:41.089Z,70.87
2023-04-02T06:47:24.446Z,70.82
2023-04-02T06:49:58.640Z,70.22
2023-04-02T06:52:46.198Z,70.27
2023-04-02T06:55:50.525Z,70.41
2023-04-02T06:58:19.531Z,70.31
2023-04-02T07:00:49.176Z,69.80
2023-04-02T07:03:22.724Z,70.04
2023-04-02T07:05:49.475Z,69.93
2023-04-02T07:08:16.138Z,68.74
2023-04-02T07:10:42.880Z,68.87
2023-04-02T07:13:15.286Z,68.88
2023-04-02T07:15:42.012Z,66.97
2023-04-02T07:18:25.958Z,67.46
2023-04-02T07:20:52.801Z,67.20
2023-04-02T07:23:21.151Z,64.00
2023-04-02T07:25:53.531Z,60.96
2023-04-02T07:28:22.553Z,60.05
2023-04-02T07:30:50.566Z,57.37
2023-04-02T07:33:20.656Z,55.42
2023-04-02T07:35:48.256Z,55.17
2023-04-02T07:38:15.000Z,55.48
2023-04-02T07:40:42.030Z,56.21
2023-04-02T07:43:08.906Z,57.93
2023-04-02T07:45:35.960Z,58.66
2023-04-02T07:48:07.499Z,58.38
2023-04-02T07:50:35.014Z,58.45
2023-04-02T07:53:01.986Z,59.47
2023-04-02T07:55:28.940Z,59.89
2023-04-02T07:57:57.928Z,60.38
2023-04-02T08:00:25.839Z,60.29
2023-04-02T08:02:53.686Z,60.62
2023-04-02T08:05:20.548Z,60.45
2023-04-02T08:07:55.627Z,60.63
2023-04-02T08:10:23.056Z,60.89
2023-04-02T08:12:50.189Z,61.44
2023-04-02T08:15:17.582Z,61.01
2023-04-02T08:17:44.609Z,61.28
2023-04-02T08:20:18.083Z,61.08
2023-04-02T08:22:45.884Z,61.31
2023-04-02T08:25:12.868Z,61.38
2023-04-02T08:27:39.781Z,61.43
2023-04-02T08:30:09.001Z,62.11
2023-04-02T08:32:36.079Z,61.66
2023-04-02T08:35:03.071Z,61.68
2023-04-02T08:37:29.907Z,61.62
2023-04-02T08:39:56.626Z,61.98
2023-04-02T08:42:38.327Z,61.43
2023-04-02T08:45:42.605Z,61.58
2023-04-02T08:48:11.316Z,62.27
2023-04-02T08:50:40.824Z,62.45
2023-04-02T08:53:21.320Z,62.35
2023-04-02T08:56:09.961Z,62.12
2023-04-02T08:58:43.012Z,60.55
2023-04-02T09:01:44.926Z,60.31
2023-04-02T09:04:16.497Z,60.57
2023-04-02T09:06:44.006Z,60.71
2023-04-02T09:09:14.206Z,60.87
2023-04-02T09:11:54.543Z,61.63
2023-04-02T09:14:35.056Z,61.57
2023-04-02T09:17:12.643Z,61.74
2023-04-02T09:19:44.581Z,61.04
2023-04-02T09:22:23.520Z,61.39
2023-04-02T09:24:58.016Z,61.51
2023-04-02T09:27:30.654Z,61.13
2023-04-02T09:30:10.720Z,60.38
2023-04-02T09:32:46.466Z,61.25
2023-04-02T09:35:25.624Z,61.00
2023-04-02T09:38:12.608Z,60.63
2023-04-02T09:41:18.610Z,61.00
2023-04-02T09:43:45.626Z,60.76
2023-04-02T09:46:24.434Z,59.84
2023-04-02T09:48:58.203Z,59.93
2023-04-02T09:51:27.297Z,59.83
2023-04-02T09:54:03.188Z,59.62
2023-04-02T09:56:32.015Z,59.51
2023-04-02T09:59:14.202Z,59.50
2023-04-02T10:01:53.314Z,60.09
2023-04-02T10:04:35.275Z,60.25
2023-04-02T10:07:03.094Z,60.20
2023-04-02T10:09:38.577Z,59.64
2023-04-02T10:12:12.632Z,58.49
2023-04-02T10:14:46.337Z,58.11
2023-04-02T10:17:19.389Z,57.88
2023-04-02T10:19:52.462Z,58.50
2023-04-02T10:22:21.657Z,57.66
2023-04-02T10:24:49.002Z,58.38
2023-04-02T10:27:18.721Z,58.89
2023-04-02T10:30:19.160Z,57.84
2023-04-02T10:33:00.948Z,58.35
2023-04-02T10:35:53.821Z,58.54
2023-04-02T10:38:23.407Z,59.03
2023-04-02T10:41:32.094Z,58.41
2023-04-02T10:44:16.750Z,57.93
2023-04-02T10:47:08.128Z,56.39
2023-04-02T10:50:02.504Z,55.88
2023-04-02T10:52:35.092Z,56.52
2023-04-02T10:55:08.873Z,56.57
2023-04-02T10:57:44.122Z,55.51
2023-04-02T11:00:11.344Z,55.57
2023-04-02T11:02:47.530Z,55.56
2023-04-02T11:05:44.153Z,54.57
2023-04-02T11:08:13.800Z,55.22
2023-04-02T11:10:47.220Z,55.65
2023-04-02T11:13:23.172Z,56.32
2023-04-02T11:15:50.761Z,56.05
2023-04-02T11:18:36.758Z,56.26
2023-04-02T11:21:04.938Z,55.93
2023-04-02T11:24:02.060Z,55.49
2023-04-02T11:26:37.540Z,55.33
2023-04-02T11:29:23.381Z,55.19
2023-04-02T11:32:11.209Z,54.83
2023-04-02T11:34:40.848Z,55.36
2023-04-02T11:37:45.737Z,53.92
2023-04-02T11:40:13.708Z,54.56
2023-04-02T11:42:44.118Z,53.48
2023-04-02T11:45:28.729Z,54.11
2023-04-02T11:48:01.421Z,55.23
2023-04-02T11:50:35.229Z,55.10
2023-04-02T11:53:11.546Z,54.84
2023-04-02T11:55:40.098Z,54.09
2023-04-02T11:58:20.627Z,53.29
2023-04-02T12:01:16.278Z,54.23
2023-04-02T12:03:57.847Z,53.75
2023-04-02T12:06:27.480Z,54.11
2023-04-02T12:09:15.416Z,53.85
2023-04-02T12:11:42.941Z,53.37
2023-04-02T12:14:47.178Z,54.13
2023-04-02T12:17:35.795Z,53.25
2023-04-02T12:20:08.365Z,52.94
2023-04-02T12:22:52.974Z,51.72
2023-04-02T12:25:40.127Z,52.44
2023-04-02T12:28:09.792Z,52.51
2023-04-02T12:30:38.584Z,52.36
2023-04-02T12:33:37.493Z,53.01
2023-04-02T12:36:10.003Z,52.93
2023-04-02T12:38:55.456Z,52.82
2023-04-02T12:41:31.210Z,52.40
2023-04-02T12:44:28.047Z,52.35
2023-04-02T12:46:56.126Z,52.48
2023-04-02T12:49:34.195Z,52.70
2023-04-02T12:52:07.623Z,52.52
2023-04-02T12:54:46.278Z,51.47
2023-04-02T12:57:26.230Z,51.71
2023-04-02T12:59:58.208Z,52.13
2023-04-02T13:02:27.463Z,51.50
2023-04-02T13:05:01.186Z,51.21
2023-04-02T13:07:34.349Z,51.70
2023-04-02T13:10:03.693Z,51.38
2023-04-02T13:12:38.646Z,51.22
2023-04-02T13:15:08.227Z,51.03
2023-04-02T13:17:44.146Z,51.41
2023-04-02T13:20:31.646Z,51.21
2023-04-02T13:23:00.860Z,51.85
2023-04-02T13:25:35.378Z,51.48
2023-04-02T13:28:02.675Z,51.62
2023-04-02T13:30:29.794Z,49.92
2023-04-02T13:32:56.647Z,51.06
2023-04-02T13:35:23.411Z,52.26
2023-04-02T13:37:50.126Z,50.69
2023-04-02T13:40:19.380Z,50.87
2023-04-02T13:42:47.537Z,49.17
2023-04-02T13:45:29.051Z,50.04
2023-04-02T13:48:00.853Z,50.40
2023-04-02T13:50:31.971Z,50.80
2023-04-02T13:53:04.771Z,50.96
2023-04-02T13:55:35.249Z,51.52
2023-04-02T13:58:01.882Z,50.63
2023-04-02T14:00:28.479Z,50.99
2023-04-02T14:03:01.573Z,51.07
2023-04-02T14:05:53.722Z,50.97
2023-04-02T14:08:51.351Z,50.60
2023-04-02T14:11:57.282Z,50.66
2023-04-02T14:15:01.590Z,51.18
2023-04-02T14:17:32.515Z,51.40
2023-04-02T14:20:10.890Z,50.62
2023-04-02T14:23:04.048Z,50.47
2023-04-02T14:25:57.971Z,51.42
2023-04-02T14:28:40.364Z,51.27
2023-04-02T14:31:31.679Z,50.26
2023-04-02T14:34:15.746Z,50.79
2023-04-02T14:36:45.954Z,50.83
2023-04-02T14:39:15.745Z,50.82
2023-04-02T14:41:58.288Z,50.06
2023-04-02T14:44:30.882Z,50.10
2023-04-02T14:47:14.358Z,50.30
2023-04-02T14:49:45.819Z,49.45
2023-04-02T14:52:18.163Z,50.04
2023-04-02T14:54:55.706Z,49.26
2023-04-02T14:57:49.217Z,48.63
2023-04-02T15:00:42.035Z,49.42
2023-04-02T15:03:29.046Z,49.38
2023-04-02T15:05:59.897Z,49.50
2023-04-02T15:08:30.636Z,49.56
2023-04-02T15:11:16.317Z,49.54
2023-04-02T15:13:55.378Z,48.72
2023-04-02T15:16:26.735Z,49.10
2023-04-02T15:18:56.920Z,49.12
2023-04-02T15:21:29.365Z,49.38
2023-04-02T15:24:01.796Z,49.10
2023-04-02T15:26:57.799Z,48.06
2023-04-02T15:29:43.322Z,47.45
2023-04-02T15:32:27.364Z,46.71
2023-04-02T15:35:06.571Z,46.66
2023-04-02T15:37:46.156Z,46.16
2023-04-02T15:40:31.246Z,45.98
2023-04-02T15:43:18.718Z,46.71
2023-04-02T15:46:05.357Z,47.08
2023-04-02T15:48:48.238Z,47.10
2023-04-02T15:51:23.149Z,46.29
2023-04-02T15:54:16.098Z,45.44
2023-04-02T15:57:01.793Z,45.50
2023-04-02T15:59:34.200Z,45.65
2023-04-02T16:02:34.837Z,45.50
2023-04-02T16:05:19.640Z,45.82
2023-04-02T16:08:01.131Z,45.52
2023-04-02T16:10:41.778Z,45.76
2023-04-02T16:13:34.091Z,45.04
2023-04-02T16:16:10.002Z,45.37
2023-04-02T16:18:47.433Z,45.57
2023-04-02T16:21:21.827Z,46.05
2023-04-02T16:23:49.425Z,45.41
2023-04-02T16:26:16.348Z,45.48
2023-04-02T16:28:45.289Z,46.07
2023-04-02T16:31:28.414Z,46.15
2023-04-02T16:34:22.474Z,45.78
2023-04-02T16:37:01.481Z,45.65
2023-04-02T16:39:36.969Z,45.69
2023-04-02T16:42:18.837Z,45.55
2023-04-02T16:45:09.406Z,45.99
2023-04-02T16:48:05.383Z,46.29
2023-04-02T16:50:46.087Z,45.98
2023-04-02T16:53:23.351Z,46.28
2023-04-02T16:56:37.330Z,45.90
2023-04-02T16:59:44.220Z,46.38
2023-04-02T17:02:25.830Z,46.26
2023-04-02T17:05:10.758Z,46.55
2023-04-02T17:07:46.261Z,46.62
2023-04-02T17:10:31.391Z,45.98
2023-04-02T17:13:03.206Z,46.76
2023-04-02T17:15:39.292Z,46.56
2023-04-02T17:18:24.723Z,47.19
2023-04-02T17:20:52.156Z,46.90
2023-04-02T17:23:20.001Z,46.88
2023-04-02T17:26:07.736Z,47.58
2023-04-02T17:28:37.073Z,47.12
2023-04-02T17:31:11.841Z,46.65
2023-04-02T17:33:38.596Z,46.89
2023-04-02T17:36:34.993Z,46.92
2023-04-02T17:39:04.654Z,46.97
2023-04-02T17:41:43.789Z,46.61
2023-04-02T17:44:19.401Z,46.60
2023-04-02T17:47:01.727Z,46.79
2023-04-02T17:49:42.034Z,46.95
2023-04-02T17:52:15.988Z,46.69
2023-04-02T17:55:13.378Z,47.22
2023-04-02T17:57:47.659Z,47.30
2023-04-02T18:00:42.112Z,47.75
2023-04-02T18:03:18.123Z,48.70
2023-04-02T18:05:51.564Z,48.45
2023-04-02T18:08:32.182Z,49.54
2023-04-02T18:11:18.953Z,49.26
2023-04-02T18:14:05.247Z,49.44
2023-04-02T18:16:42.244Z,49.60
2023-04-02T18:19:13.456Z,49.71
2023-04-02T18:22:13.410Z,49.95
2023-04-02T18:24:58.471Z,49.52
2023-04-02T18:27:34.491Z,50.20
2023-04-02T18:30:27.355Z,50.25
2023-04-02T18:33:12.152Z,49.88
2023-04-02T18:35:59.953Z,50.22
2023-04-02T18:38:46.363Z,50.05
2023-04-02T18:42:10.188Z,50.33
2023-04-02T18:44:42.694Z,50.10
2023-04-02T18:47:29.890Z,49.65
2023-04-02T18:50:12.201Z,49.72
2023-04-02T18:52:41.289Z,49.90
2023-04-02T18:55:17.430Z,49.69
2023-04-02T18:57:46.849Z,49.13
2023-04-02T19:00:29.666Z,49.18
2023-04-02T19:03:24.112Z,49.52
2023-04-02T19:06:07.584Z,49.12
2023-04-02T19:08:40.788Z,49.25
2023-04-02T19:11:13.958Z,49.64
2023-04-02T19:13:40.751Z,49.53
2023-04-02T19:16:38.668Z,49.42
2023-04-02T19:19:08.168Z,49.31
2023-04-02T19:21:55.796Z,48.62
2023-04-02T19:24:33.818Z,49.41
2023-04-02T19:27:27.333Z,49.62
2023-04-02T19:29:53.957Z,49.45
2023-04-02T19:32:54.943Z,49.76
2023-04-02T19:35:30.545Z,49.60
2023-04-02T19:39:02.356Z,49.37
2023-04-02T19:41:43.070Z,49.32
2023-04-02T19:44:13.323Z,49.92
2023-04-02T19:46:40.979Z,49.58
2023-04-02T19:49:23.086Z,49.97
2023-04-02T19:51:50.201Z,50.14
2023-04-02T19:54:16.916Z,50.38
2023-04-02T19:56:43.968Z,50.20
2023-04-02T19:59:18.142Z,50.82
2023-04-02T20:01:46.175Z,51.17
2023-04-02T20:04:13.167Z,51.64
2023-04-02T20:06:40.069Z,51.48
2023-04-02T20:09:08.670Z,51.07
2023-04-02T20:11:36.819Z,51.49
2023-04-02T20:14:04.259Z,51.67
2023-04-02T20:16:32.843Z,52.08
2023-04-02T20:18:59.782Z,52.41
2023-04-02T20:21:27.570Z,52.58
2023-04-02T20:23:55.420Z,52.59
2023-04-02T20:26:22.830Z,52.55
2023-04-02T20:28:49.601Z,53.08
2023-04-02T20:31:18.579Z,53.54
2023-04-02T20:33:45.759Z,54.01
2023-04-02T20:36:15.790Z,53.85
2023-04-02T20:38:43.555Z,54.02
2023-04-02T20:41:10.496Z,54.12
2023-04-02T20:43:40.514Z,54.91
2023-04-02T20:46:09.514Z,55.02
2023-04-02T20:48:38.162Z,55.31
2023-04-02T20:51:06.938Z,55.50
2023-04-02T20:53:35.291Z,56.34
2023-04-02T20:56:02.884Z,56.81
2023-04-02T20:58:29.469Z,57.65
2023-04-02T21:01:06.504Z,57.26
2023-04-02T21:03:33.195Z,57.54
2023-04-02T21:05:59.862Z,57.81
2023-04-02T21:08:26.756Z,58.46
2023-04-02T21:10:53.517Z,57.99
2023-04-02T21:13:20.389Z,58.26
2023-04-02T21:15:47.084Z,58.51
2023-04-02T21:18:13.993Z,59.20
2023-04-02T21:20:40.678Z,59.37
2023-04-02T21:23:07.552Z,59.40
2023-04-02T21:25:34.553Z,59.70
2023-04-02T21:28:01.301Z,59.71
2023-04-02T21:30:27.953Z,60.36
2023-04-02T21:32:54.675Z,59.89
2023-04-02T21:35:21.402Z,59.88
2023-04-02T21:37:48.244Z,60.15
2023-04-02T21:40:15.034Z,60.22
2023-04-02T21:42:41.664Z,60.31
2023-04-02T21:45:08.652Z,60.22
2023-04-02T21:47:35.521Z,60.81
2023-04-02T21:50:02.229Z,60.89
2023-04-02T21:52:29.248Z,60.90
2023-04-02T21:54:55.916Z,61.05
2023-04-02T21:57:22.646Z,61.08
2023-04-02T21:59:49.640Z,60.49
2023-04-02T22:02:16.225Z,60.62
2023-04-02T22:04:43.032Z,60.41
2023-04-02T22:07:10.023Z,60.65
2023-04-02T22:09:36.652Z,59.92
2023-04-02T22:12:03.564Z,60.41
2023-04-02T22:14:30.871Z,60.02
2023-04-02T22:16:58.904Z,60.56
2023-04-02T22:19:25.894Z,60.16
2023-04-02T22:21:53.863Z,59.98
2023-04-02T22:24:22.425Z,60.00
2023-04-02T22:26:49.294Z,60.25
2023-04-02T22:29:16.690Z,59.65
2023-04-02T22:31:43.781Z,59.57
2023-04-02T22:34:10.370Z,59.52
2023-04-02T22:36:37.147Z,59.04
2023-04-02T22:39:06.953Z,59.47
2023-04-02T22:41:33.953Z,58.99
2023-04-02T22:44:02.037Z,58.79
2023-04-02T22:46:29.732Z,58.84
2023-04-02T22:48:57.361Z,59.07
2023-04-02T22:51:25.505Z,58.82
2023-04-02T22:53:54.031Z,59.10
2023-04-02T22:56:23.873Z,59.36
2023-04-02T22:58:50.718Z,59.10
2023-04-02T23:01:30.595Z,59.41
2023-04-02T23:03:57.787Z,59.39
2023-04-02T23:06:26.661Z,60.14
2023-04-02T23:08:53.638Z,59.45
2023-04-02T23:11:23.086Z,59.67
2023-04-02T23:13:52.234Z,59.68
2023-04-02T23:16:19.822Z,59.68
2023-04-02T23:18:48.133Z,59.80
2023-04-02T23:21:16.359Z,59.58
2023-04-02T23:23:43.063Z,59.51
2023-04-02T23:26:13.065Z,59.59
2023-04-02T23:28:40.952Z,59.21
2023-04-02T23:31:11.058Z,58.94
2023-04-02T23:33:38.003Z,59.20
2023-04-02T23:36:18.313Z,58.86
2023-04-02T23:38:45.089Z,58.61
2023-04-02T23:41:16.390Z,58.96
2023-04-02T23:43:43.410Z,58.86
2023-04-02T23:46:10.836Z,58.74
2023-04-02T23:48:37.669Z,58.66
2023-04-02T23:51:04.655Z,58.71
2023-04-02T23:53:31.956Z,58.29
2023-04-02T23:55:58.606Z,58.21
2023-04-02T23:58:25.399Z,58.26
